Janesville, Illinois
Current Conditions -  °F | °C
As of 11:53 PM on Tuesday 21 Oct 2014 (Local Time) from KMTO Reporting Station
Clear Clear  
Wind Chill: 39°   Ceiling: Unl
Heat Index: 42°   Visibility: 10mi
Dew Point: 39°   Wind: 5mph
Humidity: 89%   Direction: 40°NE
Pressure: 30.22"   Gusts: NA
Location:  39.37°N, 88.24°W
Report Text: KMTO 220453Z AUTO 04004KT 10SM CLR 06/04 A3022 RMK AO2 SLP236 T00560039
Loading
Personal Weather Stations






























Interactive Weather Map
Tropical Storm Tracking
New forecast layout! Learn more

10-Day Weather Forecast

Advertisements
Track Severe Weather on mobile